createdAt,value
2016-08-08T00:00:58.867Z,0
2016-08-08T00:01:59.616Z,0
2016-08-08T00:02:58.931Z,0
2016-08-08T00:03:58.957Z,0
2016-08-08T00:04:59.029Z,0
2016-08-08T00:05:59.009Z,0
2016-08-08T00:07:00.447Z,0
2016-08-08T00:07:59.764Z,0
2016-08-08T00:08:59.081Z,0
2016-08-08T00:09:59.108Z,0
2016-08-08T00:10:59.144Z,0
2016-08-08T00:12:14.065Z,0
2016-08-08T00:12:59.950Z,0
2016-08-08T00:13:59.235Z,0
2016-08-08T00:14:59.245Z,0
2016-08-08T00:15:59.976Z,0
2016-08-08T00:16:59.297Z,0
2016-08-08T00:17:59.324Z,0
2016-08-08T00:19:00.779Z,0
2016-08-08T00:19:59.390Z,0
2016-08-08T00:20:59.430Z,0
2016-08-08T00:21:59.441Z,0
2016-08-08T00:22:59.459Z,0
2016-08-08T00:24:00.903Z,0
2016-08-08T00:24:59.512Z,0
2016-08-08T00:25:59.533Z,0
2016-08-08T00:26:59.565Z,0
2016-08-08T00:27:59.584Z,0
2016-08-08T00:28:59.611Z,0
2016-08-08T00:30:00.388Z,0
2016-08-08T00:30:59.669Z,0
2016-08-08T00:31:59.703Z,0
2016-08-08T00:33:00.435Z,0
2016-08-08T00:33:59.746Z,0
2016-08-08T00:34:59.768Z,0
2016-08-08T00:35:59.800Z,0
2016-08-08T00:37:00.538Z,0
2016-08-08T00:38:00.560Z,0
2016-08-08T00:38:59.891Z,0
2016-08-08T00:39:59.906Z,0
2016-08-08T00:41:01.346Z,0
2016-08-08T00:42:00.664Z,0
2016-08-08T00:42:59.996Z,0
2016-08-08T00:44:00.004Z,0
2016-08-08T00:45:00.040Z,0
2016-08-08T00:46:00.770Z,0
2016-08-08T00:47:00.101Z,0
2016-08-08T00:48:00.126Z,0
2016-08-08T00:49:00.146Z,0
2016-08-08T00:50:00.169Z,0
2016-08-08T00:51:00.204Z,0
2016-08-08T00:52:00.927Z,0
2016-08-08T00:53:00.242Z,0
2016-08-08T00:54:00.994Z,0
2016-08-08T00:55:00.294Z,0
2016-08-08T00:56:01.069Z,0
2016-08-08T00:57:00.364Z,0
2016-08-08T00:58:01.089Z,0
2016-08-08T00:59:01.128Z,0
2016-08-08T01:00:01.145Z,0
2016-08-08T01:01:01.198Z,0
2016-08-08T01:02:01.199Z,0
2016-08-08T01:03:01.223Z,0
2016-08-08T01:04:00.562Z,0
2016-08-08T01:05:00.579Z,0
2016-08-08T01:06:00.615Z,0
2016-08-08T01:07:00.610Z,0
2016-08-08T01:08:01.356Z,0
2016-08-08T01:09:01.384Z,0
2016-08-08T01:10:01.400Z,0
2016-08-08T01:11:01.432Z,0
2016-08-08T01:12:00.756Z,0
2016-08-08T01:13:00.776Z,0
2016-08-08T01:14:01.515Z,0
2016-08-08T01:15:01.545Z,0
2016-08-08T01:16:00.861Z,0
2016-08-08T01:17:00.889Z,0
2016-08-08T01:18:00.918Z,0
2016-08-08T01:19:00.925Z,0
2016-08-08T01:20:00.970Z,0
2016-08-08T01:21:00.984Z,0
2016-08-08T01:22:01.005Z,0
2016-08-08T01:23:01.034Z,0
2016-08-08T01:24:01.086Z,0
2016-08-08T01:25:01.089Z,0
2016-08-08T01:26:01.120Z,0
2016-08-08T01:27:01.188Z,0
2016-08-08T01:28:01.873Z,0
2016-08-08T01:29:01.198Z,0
2016-08-08T01:30:01.214Z,0
2016-08-08T01:31:01.246Z,0
2016-08-08T01:32:02.007Z,0
2016-08-08T01:33:02.034Z,0
2016-08-08T01:34:01.323Z,0
2016-08-08T01:35:01.347Z,0
2016-08-08T01:36:01.379Z,0
2016-08-08T01:37:02.108Z,0
2016-08-08T01:38:01.422Z,0
2016-08-08T01:39:01.455Z,0
2016-08-08T01:40:02.198Z,0
2016-08-08T01:41:02.247Z,0
2016-08-08T01:42:01.560Z,0
2016-08-08T01:43:01.566Z,0
2016-08-08T01:44:01.584Z,0
2016-08-08T01:45:01.610Z,0
2016-08-08T01:46:01.631Z,0
2016-08-08T01:47:01.673Z,0
2016-08-08T01:48:01.693Z,0
2016-08-08T01:49:02.464Z,0
2016-08-08T01:50:01.758Z,0
2016-08-08T01:51:01.774Z,0
2016-08-08T01:52:02.499Z,0
2016-08-08T01:53:01.820Z,0
2016-08-08T01:54:01.856Z,0
2016-08-08T01:55:03.303Z,0
2016-08-08T01:56:02.610Z,0
2016-08-08T01:57:01.968Z,0
2016-08-08T01:58:01.964Z,0
2016-08-08T01:59:01.985Z,0
2016-08-08T02:00:02.727Z,0
2016-08-08T02:01:02.031Z,0
2016-08-08T02:02:02.062Z,0
2016-08-08T02:03:02.085Z,0
2016-08-08T02:04:02.128Z,0
2016-08-08T02:05:02.847Z,0
2016-08-08T02:06:02.178Z,0
2016-08-08T02:07:02.199Z,0
2016-08-08T02:08:02.221Z,0
2016-08-08T02:09:02.265Z,0
2016-08-08T02:10:03.689Z,0
2016-08-08T02:11:03.006Z,0
2016-08-08T02:12:02.377Z,0
2016-08-08T02:13:02.350Z,0
2016-08-08T02:14:03.092Z,0
2016-08-08T02:15:02.418Z,0
2016-08-08T02:16:03.139Z,0
2016-08-08T02:17:03.166Z,0
2016-08-08T02:18:02.499Z,0
2016-08-08T02:19:02.510Z,0
2016-08-08T02:20:03.267Z,0
2016-08-08T02:21:03.271Z,0
2016-08-08T02:22:04.012Z,0
2016-08-08T02:23:02.635Z,0
2016-08-08T02:24:03.348Z,0
2016-08-08T02:25:02.662Z,0
2016-08-08T02:26:02.698Z,0
2016-08-08T02:28:03.461Z,0
2016-08-08T02:29:02.771Z,0
2016-08-08T02:30:03.511Z,0
2016-08-08T02:31:02.825Z,0
2016-08-08T02:32:02.873Z,0
2016-08-08T02:33:02.880Z,0
2016-08-08T02:34:02.899Z,0
2016-08-08T02:35:02.928Z,0
2016-08-08T02:36:03.686Z,0
2016-08-08T02:37:02.981Z,0
2016-08-08T02:38:03.729Z,0
2016-08-08T02:39:03.035Z,0
2016-08-08T02:40:03.063Z,0
2016-08-08T02:41:03.804Z,0
2016-08-08T02:43:03.139Z,0
2016-08-08T02:44:03.175Z,0
2016-08-08T02:45:03.195Z,0
2016-08-08T02:46:03.216Z,0
2016-08-08T02:47:03.959Z,0
2016-08-08T02:48:03.980Z,0
2016-08-08T02:49:03.298Z,0
2016-08-08T02:50:04.035Z,0
2016-08-08T02:51:03.352Z,0
2016-08-08T02:52:04.794Z,0
2016-08-08T02:53:04.116Z,0
2016-08-08T02:54:04.160Z,0
2016-08-08T02:55:03.455Z,0
2016-08-08T02:56:04.187Z,0
2016-08-08T02:57:03.514Z,0
2016-08-08T02:58:04.242Z,0
2016-08-08T02:59:04.262Z,0
2016-08-08T03:00:04.292Z,0
2016-08-08T03:01:18.501Z,0
2016-08-08T03:02:03.638Z,0
2016-08-08T03:03:04.377Z,0
2016-08-08T03:04:04.396Z,0
2016-08-08T03:05:03.719Z,0
2016-08-08T03:06:03.735Z,0
2016-08-08T03:07:04.472Z,0
2016-08-08T03:08:05.225Z,0
2016-08-08T03:09:03.819Z,0
2016-08-08T03:10:04.563Z,0
2016-08-08T03:11:05.292Z,0
2016-08-08T03:12:03.897Z,0
2016-08-08T03:13:04.632Z,0
2016-08-08T03:14:04.658Z,0
2016-08-08T03:15:03.970Z,0
2016-08-08T03:16:03.996Z,0
2016-08-08T03:17:04.732Z,0
2016-08-08T03:18:04.069Z,0
2016-08-08T03:19:04.095Z,0
2016-08-08T03:20:04.114Z,0
2016-08-08T03:21:04.835Z,0
2016-08-08T03:22:04.862Z,0
2016-08-08T03:23:04.184Z,0
2016-08-08T03:24:04.208Z,0
2016-08-08T03:25:04.233Z,0
2016-08-08T03:26:04.257Z,0
2016-08-08T03:27:04.995Z,0
2016-08-08T03:28:04.332Z,0
2016-08-08T03:29:04.339Z,0
2016-08-08T03:30:04.363Z,0
2016-08-08T03:31:04.400Z,0
2016-08-08T03:32:04.428Z,0
2016-08-08T03:33:04.437Z,0
2016-08-08T03:34:05.178Z,0
2016-08-08T03:35:04.496Z,0
2016-08-08T03:36:05.226Z,0
2016-08-08T03:37:04.544Z,0
2016-08-08T03:38:05.312Z,0
2016-08-08T03:39:05.324Z,0
2016-08-08T03:40:06.046Z,0
2016-08-08T03:41:05.369Z,0
2016-08-08T03:42:05.378Z,0
2016-08-08T03:43:06.114Z,0
2016-08-08T03:44:04.720Z,0
2016-08-08T03:45:04.744Z,0
2016-08-08T03:46:05.485Z,0
2016-08-08T03:47:04.830Z,0
2016-08-08T03:48:05.533Z,0
2016-08-08T03:49:05.559Z,0
2016-08-08T03:50:07.004Z,0
2016-08-08T03:51:05.611Z,0
2016-08-08T03:52:06.352Z,0
2016-08-08T03:53:05.660Z,0
2016-08-08T03:54:05.692Z,0
2016-08-08T03:55:05.003Z,0
2016-08-08T03:56:05.143Z,0
2016-08-08T03:57:05.061Z,0
2016-08-08T03:58:19.991Z,0
2016-08-08T03:59:05.814Z,0
2016-08-08T04:00:05.139Z,0
2016-08-08T04:01:05.873Z,0
2016-08-08T04:02:05.186Z,0
2016-08-08T04:03:05.206Z,0
2016-08-08T04:04:05.948Z,0
2016-08-08T04:05:05.315Z,0
2016-08-08T04:06:06.740Z,0
2016-08-08T04:07:05.321Z,0
2016-08-08T04:08:06.045Z,0
2016-08-08T04:09:05.358Z,0
2016-08-08T04:10:05.398Z,0
2016-08-08T04:11:06.844Z,0
2016-08-08T04:12:05.458Z,0
2016-08-08T04:13:05.473Z,0
2016-08-08T04:14:05.519Z,0
2016-08-08T04:15:05.539Z,0
2016-08-08T04:16:05.549Z,0
2016-08-08T04:17:06.295Z,0
2016-08-08T04:18:05.600Z,0
2016-08-08T04:19:05.631Z,0
2016-08-08T04:20:05.647Z,0
2016-08-08T04:21:06.394Z,0
2016-08-08T04:22:05.690Z,0
2016-08-08T04:23:06.447Z,0
2016-08-08T04:24:05.748Z,0
2016-08-08T04:25:05.767Z,0
2016-08-08T04:26:06.507Z,0
2016-08-08T04:27:05.849Z,0
2016-08-08T04:28:05.857Z,0
2016-08-08T04:29:05.930Z,0
2016-08-08T04:30:06.615Z,0
2016-08-08T04:31:06.631Z,0
2016-08-08T04:32:05.953Z,0
2016-08-08T04:33:05.980Z,0
2016-08-08T04:34:06.007Z,0
2016-08-08T04:35:06.028Z,0
2016-08-08T04:36:06.786Z,0
2016-08-08T04:37:06.092Z,0
2016-08-08T04:38:06.108Z,0
2016-08-08T04:39:06.130Z,0
2016-08-08T04:40:06.152Z,0
2016-08-08T04:41:06.189Z,0
2016-08-08T04:42:06.228Z,0
2016-08-08T04:43:06.946Z,0
2016-08-08T04:44:06.966Z,0
2016-08-08T04:45:06.313Z,0
2016-08-08T04:46:06.325Z,0
2016-08-08T04:47:07.041Z,0
2016-08-08T04:48:07.071Z,0
2016-08-08T04:49:07.112Z,0
2016-08-08T04:50:06.427Z,0
2016-08-08T04:51:06.448Z,0
2016-08-08T04:52:07.875Z,0
2016-08-08T04:53:07.194Z,0
2016-08-08T04:54:06.516Z,0
2016-08-08T04:55:06.535Z,0
2016-08-08T04:56:06.563Z,0
2016-08-08T04:57:07.297Z,0
2016-08-08T04:58:06.637Z,0
2016-08-08T04:59:07.365Z,0
2016-08-08T05:00:06.668Z,0
2016-08-08T05:01:07.402Z,0
2016-08-08T05:02:07.422Z,0
2016-08-08T05:03:07.449Z,0
2016-08-08T05:04:06.764Z,0
2016-08-08T05:05:06.844Z,0
2016-08-08T05:06:06.835Z,0
2016-08-08T05:07:06.852Z,0
2016-08-08T05:08:06.875Z,0
2016-08-08T05:09:06.903Z,0
2016-08-08T05:10:07.628Z,0
2016-08-08T05:11:06.954Z,0
2016-08-08T05:12:08.393Z,0
2016-08-08T05:13:08.445Z,0
2016-08-08T05:14:07.035Z,0
2016-08-08T05:15:08.465Z,0
2016-08-08T05:16:07.780Z,0
2016-08-08T05:17:07.809Z,0
2016-08-08T05:18:07.125Z,0
2016-08-08T05:19:07.157Z,0
2016-08-08T05:20:07.184Z,0
2016-08-08T05:21:07.925Z,0
2016-08-08T05:22:07.228Z,0
2016-08-08T05:23:08.683Z,0
2016-08-08T05:24:08.711Z,0
2016-08-08T05:25:08.038Z,0
2016-08-08T05:26:07.339Z,0
2016-08-08T05:27:08.075Z,0
2016-08-08T05:28:08.099Z,0
2016-08-08T05:29:07.404Z,0
2016-08-08T05:30:08.151Z,0
2016-08-08T05:31:07.457Z,0
2016-08-08T05:32:07.513Z,0
2016-08-08T05:33:08.246Z,0
2016-08-08T05:34:07.556Z,0
2016-08-08T05:35:07.560Z,0
2016-08-08T05:36:07.590Z,0
2016-08-08T05:37:09.044Z,0
2016-08-08T05:38:07.657Z,0
2016-08-08T05:39:07.671Z,0
2016-08-08T05:40:08.411Z,0
2016-08-08T05:41:08.428Z,0
2016-08-08T05:42:07.745Z,0
2016-08-08T05:43:07.768Z,0
2016-08-08T05:44:08.501Z,0
2016-08-08T05:45:07.826Z,0
2016-08-08T05:46:08.581Z,0
2016-08-08T05:47:09.291Z,0
2016-08-08T05:48:07.907Z,0
2016-08-08T05:49:07.929Z,0
2016-08-08T05:50:08.676Z,0
2016-08-08T05:51:07.976Z,0
2016-08-08T05:52:08.729Z,0
2016-08-08T05:53:08.036Z,0
2016-08-08T05:54:08.062Z,0
2016-08-08T05:55:08.800Z,0
2016-08-08T05:56:08.110Z,0
2016-08-08T05:57:08.842Z,0
2016-08-08T05:58:08.162Z,0
2016-08-08T05:59:08.916Z,0
2016-08-08T06:00:09.630Z,0
2016-08-08T06:01:08.954Z,5
2016-08-08T06:02:08.273Z,5
2016-08-08T06:03:09.002Z,5
2016-08-08T06:04:09.036Z,5
2016-08-08T06:05:09.069Z,5
2016-08-08T06:06:08.378Z,5
2016-08-08T06:07:08.401Z,5
2016-08-08T06:08:08.424Z,5
2016-08-08T06:09:08.446Z,5
2016-08-08T06:10:09.179Z,5
2016-08-08T06:11:08.505Z,5
2016-08-08T06:12:08.540Z,5
2016-08-08T06:13:08.565Z,5
2016-08-08T06:14:08.583Z,5
2016-08-08T06:15:08.606Z,5
2016-08-08T06:16:08.645Z,5
2016-08-08T06:17:09.366Z,5
2016-08-08T06:18:08.683Z,5
2016-08-08T06:19:08.708Z,5
2016-08-08T06:20:08.754Z,5
2016-08-08T06:21:08.777Z,5
2016-08-08T06:22:08.799Z,5
2016-08-08T06:23:09.529Z,5
2016-08-08T06:24:08.842Z,5
2016-08-08T06:25:08.870Z,5
2016-08-08T06:26:08.896Z,5
2016-08-08T06:27:09.640Z,5
2016-08-08T06:28:08.978Z,5
2016-08-08T06:29:09.686Z,5
2016-08-08T06:30:10.421Z,5
2016-08-08T06:31:09.745Z,5
2016-08-08T06:32:09.056Z,5
2016-08-08T06:33:09.085Z,5
2016-08-08T06:34:09.828Z,5
2016-08-08T06:35:09.848Z,5
2016-08-08T06:36:09.189Z,5
2016-08-08T06:37:09.211Z,10
2016-08-08T06:38:09.928Z,10
2016-08-08T06:39:09.953Z,10
2016-08-08T06:40:09.981Z,10
2016-08-08T06:41:10.722Z,10
2016-08-08T06:42:09.324Z,10
2016-08-08T06:43:09.419Z,10
2016-08-08T06:44:09.390Z,10
2016-08-08T06:45:09.426Z,10
2016-08-08T06:46:09.449Z,10
2016-08-08T06:47:10.184Z,10
2016-08-08T06:48:10.196Z,10
2016-08-08T06:49:10.236Z,10
2016-08-08T06:50:09.546Z,10
2016-08-08T06:51:09.570Z,10
2016-08-08T06:52:09.625Z,10
2016-08-08T06:53:09.660Z,10
2016-08-08T06:54:11.080Z,10
2016-08-08T06:55:10.406Z,10
2016-08-08T06:56:10.422Z,10
2016-08-08T06:57:10.450Z,10
2016-08-08T06:58:09.802Z,10
2016-08-08T06:59:09.789Z,10
2016-08-08T07:00:09.838Z,10
2016-08-08T07:01:09.869Z,10
2016-08-08T07:02:09.883Z,10
2016-08-08T07:03:09.898Z,10
2016-08-08T07:04:10.668Z,10
2016-08-08T07:05:09.958Z,10
2016-08-08T07:06:09.987Z,10
2016-08-08T07:07:10.721Z,10
2016-08-08T07:08:10.056Z,10
2016-08-08T07:09:10.793Z,10
2016-08-08T07:10:10.800Z,10
2016-08-08T07:11:10.122Z,10
2016-08-08T07:12:10.861Z,10
2016-08-08T07:13:10.257Z,10
2016-08-08T07:14:10.919Z,10
2016-08-08T07:15:10.947Z,10
2016-08-08T07:16:10.985Z,10
2016-08-08T07:17:10.295Z,10
2016-08-08T07:18:11.025Z,10
2016-08-08T07:19:11.055Z,10
2016-08-08T07:20:10.374Z,10
2016-08-08T07:21:10.411Z,10
2016-08-08T07:22:11.143Z,10
2016-08-08T07:23:11.884Z,10
2016-08-08T07:24:10.494Z,10
2016-08-08T07:25:11.232Z,10
2016-08-08T07:26:11.259Z,10
2016-08-08T07:27:11.308Z,10
2016-08-08T07:29:10.623Z,10
2016-08-08T07:30:10.662Z,10
2016-08-08T07:31:10.698Z,10
2016-08-08T07:32:10.714Z,10
2016-08-08T07:33:12.173Z,10
2016-08-08T07:34:10.772Z,10
2016-08-08T07:35:10.799Z,10
2016-08-08T07:36:10.831Z,10
2016-08-08T07:37:11.565Z,10
2016-08-08T07:38:10.902Z,10
2016-08-08T07:39:10.917Z,10
2016-08-08T07:40:10.949Z,10
2016-08-08T07:41:10.969Z,10
2016-08-08T07:42:10.994Z,10
2016-08-08T07:43:11.031Z,10
2016-08-08T07:44:11.772Z,10
2016-08-08T07:45:11.795Z,10
2016-08-08T07:46:11.122Z,10
2016-08-08T07:47:11.861Z,10
2016-08-08T07:48:11.176Z,10
2016-08-08T07:49:12.616Z,10
2016-08-08T07:50:11.243Z,10
2016-08-08T07:51:11.256Z,10
2016-08-08T07:52:11.293Z,15
2016-08-08T07:53:11.316Z,15
2016-08-08T07:54:11.356Z,15
2016-08-08T07:55:12.085Z,15
2016-08-08T07:56:11.418Z,15
2016-08-08T07:57:11.441Z,15
2016-08-08T07:59:11.496Z,15
2016-08-08T08:00:11.518Z,15
2016-08-08T08:01:11.550Z,55
2016-08-08T08:02:11.578Z,265
2016-08-08T08:03:12.353Z,545
2016-08-08T08:04:11.646Z,485
2016-08-08T08:05:13.109Z,90
2016-08-08T08:06:11.704Z,50
2016-08-08T08:07:12.436Z,95
2016-08-08T08:08:11.753Z,40
2016-08-08T08:09:12.689Z,25
2016-08-08T08:10:11.836Z,45
2016-08-08T08:11:12.558Z,300
2016-08-08T08:12:11.873Z,595
2016-08-08T08:13:12.615Z,505
2016-08-08T08:14:11.933Z,430
2016-08-08T08:15:11.961Z,545
2016-08-08T08:16:12.007Z,730
2016-08-08T08:17:12.023Z,970
2016-08-08T08:18:12.057Z,910
2016-08-08T08:19:13.521Z,210
2016-08-08T08:20:12.110Z,30
2016-08-08T08:21:12.171Z,20
2016-08-08T08:22:12.896Z,20
2016-08-08T08:23:12.215Z,15
2016-08-08T08:24:12.949Z,15
2016-08-08T08:25:12.265Z,15
2016-08-08T08:26:12.297Z,15
2016-08-08T08:27:13.043Z,15
2016-08-08T08:28:12.374Z,15
2016-08-08T08:29:13.118Z,15
2016-08-08T08:30:12.428Z,15
2016-08-08T08:31:12.442Z,15
2016-08-08T08:32:13.189Z,15
2016-08-08T08:33:12.512Z,15
2016-08-08T08:34:13.248Z,15
2016-08-08T08:35:12.570Z,15
2016-08-08T08:36:12.601Z,15
2016-08-08T08:37:12.632Z,15
2016-08-08T08:38:13.369Z,15
2016-08-08T08:39:12.698Z,15
2016-08-08T08:40:12.720Z,15
2016-08-08T08:41:12.768Z,15
2016-08-08T08:42:12.779Z,15
2016-08-08T08:43:12.812Z,15
2016-08-08T08:44:13.598Z,15
2016-08-08T08:45:12.889Z,15
2016-08-08T08:46:12.907Z,20
2016-08-08T08:47:13.642Z,15
2016-08-08T08:48:12.977Z,20
2016-08-08T08:49:13.707Z,20
2016-08-08T08:50:13.736Z,20
2016-08-08T08:51:14.490Z,20
2016-08-08T08:52:13.097Z,20
2016-08-08T08:53:13.119Z,20
2016-08-08T08:54:13.148Z,20
2016-08-08T08:55:13.180Z,20
2016-08-08T08:56:13.924Z,20
2016-08-08T08:57:13.948Z,20
2016-08-08T08:58:13.983Z,20
2016-08-08T08:59:14.015Z,20
2016-08-08T09:00:14.041Z,20
2016-08-08T09:01:13.361Z,20
2016-08-08T09:02:13.398Z,25
2016-08-08T09:03:14.138Z,20
2016-08-08T09:04:13.456Z,20
2016-08-08T09:05:14.208Z,20
2016-08-08T09:06:13.520Z,20
2016-08-08T09:07:14.966Z,20
2016-08-08T09:08:13.593Z,20
2016-08-08T09:09:15.047Z,20
2016-08-08T09:10:13.641Z,20
2016-08-08T09:11:13.671Z,20
2016-08-08T09:12:14.428Z,20
2016-08-08T09:13:14.443Z,20
2016-08-08T09:14:13.762Z,20
2016-08-08T09:15:13.824Z,20
2016-08-08T09:16:13.824Z,20
2016-08-08T09:17:13.871Z,20
2016-08-08T09:18:13.898Z,20
2016-08-08T09:19:13.931Z,25
2016-08-08T09:20:15.377Z,20
2016-08-08T09:21:14.707Z,20
2016-08-08T09:22:16.155Z,20
2016-08-08T09:23:14.756Z,215
2016-08-08T09:24:14.092Z,255
2016-08-08T09:25:14.110Z,120
2016-08-08T09:26:14.142Z,25
2016-08-08T09:27:14.876Z,20
2016-08-08T09:28:14.197Z,20
2016-08-08T09:29:14.244Z,20
2016-08-08T09:30:14.270Z,25
2016-08-08T09:31:14.297Z,25
2016-08-08T09:32:14.322Z,20
2016-08-08T09:33:14.379Z,25
2016-08-08T09:34:15.099Z,20
2016-08-08T09:35:14.433Z,20
2016-08-08T09:36:14.455Z,20
2016-08-08T09:37:14.482Z,20
2016-08-08T09:38:14.510Z,20
2016-08-08T09:39:14.547Z,20
2016-08-08T09:40:14.576Z,20
2016-08-08T09:41:14.616Z,20
2016-08-08T09:42:14.638Z,20
2016-08-08T09:43:16.118Z,20
2016-08-08T09:44:14.717Z,20
2016-08-08T09:45:15.446Z,20
2016-08-08T09:46:15.476Z,20
2016-08-08T09:47:14.802Z,20
2016-08-08T09:48:14.828Z,20
2016-08-08T09:49:14.865Z,20
2016-08-08T09:50:14.903Z,20
2016-08-08T09:51:14.930Z,20
2016-08-08T09:52:14.960Z,20
2016-08-08T09:53:15.699Z,20
2016-08-08T09:54:15.734Z,20
2016-08-08T09:55:15.048Z,20
2016-08-08T09:56:15.794Z,20
2016-08-08T09:57:15.835Z,20
2016-08-08T09:58:15.152Z,20
2016-08-08T09:59:15.176Z,20
2016-08-08T10:00:15.222Z,20
2016-08-08T10:01:15.243Z,20
2016-08-08T10:02:15.277Z,20
2016-08-08T10:03:16.023Z,20
2016-08-08T10:04:15.333Z,20
2016-08-08T10:05:15.425Z,20
2016-08-08T10:06:15.417Z,20
2016-08-08T10:07:16.141Z,20
2016-08-08T10:08:16.185Z,20
2016-08-08T10:09:15.493Z,20
2016-08-08T10:10:15.542Z,20
2016-08-08T10:11:16.278Z,20
2016-08-08T10:12:16.298Z,20
2016-08-08T10:13:16.335Z,20
2016-08-08T10:14:15.653Z,20
2016-08-08T10:15:15.709Z,20
2016-08-08T10:16:15.717Z,20
2016-08-08T10:17:15.760Z,20
2016-08-08T10:18:15.789Z,20
2016-08-08T10:19:16.525Z,20
2016-08-08T10:20:15.846Z,20
2016-08-08T10:21:15.904Z,20
2016-08-08T10:22:16.637Z,20
2016-08-08T10:23:15.944Z,20
2016-08-08T10:24:15.976Z,20
2016-08-08T10:25:16.718Z,20
2016-08-08T10:26:16.049Z,20
2016-08-08T10:27:16.787Z,20
2016-08-08T10:28:16.819Z,20
2016-08-08T10:29:16.146Z,20
2016-08-08T10:30:16.877Z,20
2016-08-08T10:31:16.221Z,20
2016-08-08T10:32:16.961Z,20
2016-08-08T10:33:16.284Z,20
2016-08-08T10:34:16.298Z,20
2016-08-08T10:35:17.057Z,20
2016-08-08T10:36:16.364Z,20
2016-08-08T10:37:16.394Z,20
2016-08-08T10:38:16.451Z,20
2016-08-08T10:39:16.463Z,20
2016-08-08T10:40:16.518Z,20
2016-08-08T10:41:17.233Z,20
2016-08-08T10:42:16.561Z,20
2016-08-08T10:43:17.298Z,20
2016-08-08T10:44:16.617Z,20
2016-08-08T10:45:17.365Z,20
2016-08-08T10:46:16.702Z,20
2016-08-08T10:47:16.720Z,20
2016-08-08T10:48:16.755Z,20
2016-08-08T10:49:17.495Z,20
2016-08-08T10:50:16.828Z,20
2016-08-08T10:51:16.853Z,20
2016-08-08T10:52:16.892Z,20
2016-08-08T10:53:16.915Z,20
2016-08-08T10:54:16.952Z,15
2016-08-08T10:55:16.979Z,20
2016-08-08T10:56:17.023Z,15
2016-08-08T10:57:17.766Z,15
2016-08-08T10:58:17.082Z,15
2016-08-08T10:59:17.128Z,15
2016-08-08T11:00:17.869Z,15
2016-08-08T11:01:17.178Z,15
2016-08-08T11:02:17.214Z,15
2016-08-08T11:03:17.242Z,15
2016-08-08T11:04:17.981Z,15
2016-08-08T11:05:17.356Z,15
2016-08-08T11:06:17.334Z,15
2016-08-08T11:07:18.077Z,20
2016-08-08T11:08:17.403Z,15
2016-08-08T11:09:18.146Z,15
2016-08-08T11:10:17.472Z,15
2016-08-08T11:11:17.494Z,15
2016-08-08T11:12:18.256Z,15
2016-08-08T11:13:18.986Z,15
2016-08-08T11:14:18.304Z,15
2016-08-08T11:15:18.343Z,15
2016-08-08T11:16:17.669Z,15
2016-08-08T11:17:18.417Z,15
2016-08-08T11:18:17.745Z,15
2016-08-08T11:19:17.765Z,15
2016-08-08T11:20:18.498Z,15
2016-08-08T11:21:17.835Z,15
2016-08-08T11:22:18.570Z,15
2016-08-08T11:23:17.911Z,15
2016-08-08T11:25:19.383Z,15
2016-08-08T11:26:18.698Z,15
2016-08-08T11:27:18.030Z,15
2016-08-08T11:28:19.482Z,15
2016-08-08T11:29:18.115Z,15
2016-08-08T11:30:18.115Z,15
2016-08-08T11:31:18.179Z,15
2016-08-08T11:32:18.194Z,15
2016-08-08T11:33:18.937Z,15
2016-08-08T11:34:18.956Z,15
2016-08-08T11:35:18.997Z,15
2016-08-08T11:36:19.027Z,15
2016-08-08T11:37:19.778Z,15
2016-08-08T11:38:18.384Z,15
2016-08-08T11:39:19.864Z,15
2016-08-08T11:40:19.175Z,15
2016-08-08T11:41:18.485Z,15
2016-08-08T11:42:18.513Z,15
2016-08-08T11:43:19.271Z,15
2016-08-08T11:44:18.726Z,15
2016-08-08T11:45:18.683Z,15
2016-08-08T11:46:18.667Z,15
2016-08-08T11:47:20.247Z,15
2016-08-08T11:48:18.713Z,15
2016-08-08T11:49:18.951Z,15
2016-08-08T11:50:19.487Z,15
2016-08-08T11:51:18.814Z,15
2016-08-08T11:52:18.853Z,15
2016-08-08T11:53:18.877Z,15
2016-08-08T11:54:18.912Z,15
2016-08-08T11:55:19.653Z,15
2016-08-08T11:56:19.688Z,15
2016-08-08T11:57:19.022Z,15
2016-08-08T11:58:19.045Z,15
2016-08-08T11:59:19.778Z,15
2016-08-08T12:00:19.839Z,15
2016-08-08T12:01:19.138Z,15
2016-08-08T12:02:19.186Z,15
2016-08-08T12:03:20.048Z,15
2016-08-08T12:04:19.274Z,15
2016-08-08T12:05:19.982Z,15
2016-08-08T12:06:19.321Z,15
2016-08-08T12:07:19.344Z,15
2016-08-08T12:08:19.436Z,15
2016-08-08T12:09:19.401Z,15
2016-08-08T12:10:19.435Z,15
2016-08-08T12:11:19.472Z,15
2016-08-08T12:12:19.598Z,15
2016-08-08T12:13:20.258Z,15
2016-08-08T12:15:20.372Z,15
2016-08-08T12:16:20.343Z,15
2016-08-08T12:17:20.507Z,15
2016-08-08T12:18:19.706Z,15
2016-08-08T12:19:19.732Z,15
2016-08-08T12:20:20.629Z,15
2016-08-08T12:21:21.236Z,15
2016-08-08T12:22:20.567Z,15
2016-08-08T12:23:21.282Z,15
2016-08-08T12:24:20.604Z,15
2016-08-08T12:25:20.079Z,15
2016-08-08T12:26:20.678Z,15
2016-08-08T12:27:20.001Z,15
2016-08-08T12:28:21.456Z,15
2016-08-08T12:30:20.107Z,15
2016-08-08T12:31:20.143Z,15
2016-08-08T12:32:20.868Z,15
2016-08-08T12:33:20.238Z,15
2016-08-08T12:34:20.228Z,15
2016-08-08T12:35:20.973Z,15
2016-08-08T12:36:20.295Z,15
2016-08-08T12:37:20.327Z,15
2016-08-08T12:38:20.367Z,15
2016-08-08T12:39:20.471Z,15
2016-08-08T12:40:21.168Z,15
2016-08-08T12:41:20.467Z,15
2016-08-08T12:42:20.500Z,10
2016-08-08T12:43:20.540Z,10
2016-08-08T12:45:20.604Z,10
2016-08-08T12:46:22.066Z,10
2016-08-08T12:47:20.663Z,10
2016-08-08T12:48:20.714Z,10
2016-08-08T12:49:20.730Z,10
2016-08-08T12:50:21.472Z,10
2016-08-08T12:51:21.708Z,10
2016-08-08T12:52:21.538Z,10
2016-08-08T12:53:20.878Z,10
2016-08-08T12:54:20.909Z,10
2016-08-08T12:55:21.645Z,10
2016-08-08T12:56:20.964Z,10
2016-08-08T12:57:21.079Z,10
2016-08-08T12:58:21.743Z,10
2016-08-08T13:00:21.112Z,10
2016-08-08T13:01:21.125Z,10
2016-08-08T13:02:21.166Z,10
2016-08-08T13:03:21.223Z,10
2016-08-08T13:04:21.230Z,10
2016-08-08T13:05:21.975Z,10
2016-08-08T13:06:22.005Z,10
2016-08-08T13:07:21.327Z,10
2016-08-08T13:08:21.371Z,10
2016-08-08T13:09:21.403Z,10
2016-08-08T13:10:22.141Z,10
2016-08-08T13:11:22.209Z,10
2016-08-08T13:12:23.646Z,10
2016-08-08T13:13:21.545Z,10
2016-08-08T13:15:21.600Z,10
2016-08-08T13:16:21.633Z,10
2016-08-08T13:17:21.666Z,10
2016-08-08T13:18:22.417Z,10
2016-08-08T13:19:23.153Z,10
2016-08-08T13:20:21.768Z,10
2016-08-08T13:21:21.799Z,10
2016-08-08T13:22:21.834Z,10
2016-08-08T13:23:21.878Z,10
2016-08-08T13:24:21.900Z,10
2016-08-08T13:25:21.932Z,10
2016-08-08T13:26:22.691Z,10
2016-08-08T13:27:22.715Z,10
2016-08-08T13:28:22.037Z,10
2016-08-08T13:30:22.103Z,10
2016-08-08T13:31:22.865Z,10
2016-08-08T13:32:22.170Z,10
2016-08-08T13:33:22.909Z,10
2016-08-08T13:34:22.232Z,10
2016-08-08T13:35:22.273Z,10
2016-08-08T13:36:22.305Z,10
2016-08-08T13:37:23.049Z,10
2016-08-08T13:38:23.099Z,10
2016-08-08T13:39:23.133Z,10
2016-08-08T13:40:22.567Z,10
2016-08-08T13:41:22.465Z,10
2016-08-08T13:42:23.217Z,10
2016-08-08T13:43:22.542Z,10
2016-08-08T13:45:22.611Z,10
2016-08-08T13:46:24.147Z,10
2016-08-08T13:47:22.696Z,10
2016-08-08T13:48:22.780Z,10
2016-08-08T13:49:22.737Z,10
2016-08-08T13:50:24.195Z,10
2016-08-08T13:51:22.805Z,10
2016-08-08T13:52:22.865Z,10
2016-08-08T13:53:23.096Z,10
2016-08-08T13:54:22.910Z,10
2016-08-08T13:55:23.662Z,10
2016-08-08T13:56:25.523Z,10
2016-08-08T13:57:23.018Z,10
2016-08-08T13:58:23.047Z,10
2016-08-08T14:00:23.111Z,10
2016-08-08T14:01:23.194Z,10
2016-08-08T14:02:23.904Z,10
2016-08-08T14:03:23.209Z,10
2016-08-08T14:04:23.247Z,10
2016-08-08T14:05:23.293Z,10
2016-08-08T14:06:23.305Z,10
2016-08-08T14:07:24.111Z,10
2016-08-08T14:08:23.372Z,10
2016-08-08T14:09:23.406Z,10
2016-08-08T14:10:23.456Z,10
2016-08-08T14:11:24.370Z,10
2016-08-08T14:12:23.509Z,10
2016-08-08T14:13:23.539Z,10
2016-08-08T14:15:24.322Z,10
2016-08-08T14:16:23.653Z,10
2016-08-08T14:17:23.680Z,10
2016-08-08T14:18:23.925Z,10
2016-08-08T14:19:24.499Z,10
2016-08-08T14:20:24.487Z,10
2016-08-08T14:21:23.821Z,10
2016-08-08T14:22:23.879Z,10
2016-08-08T14:23:23.878Z,10
2016-08-08T14:24:24.670Z,10
2016-08-08T14:25:23.953Z,10
2016-08-08T14:26:25.566Z,10
2016-08-08T14:27:24.010Z,10
2016-08-08T14:28:24.054Z,10
2016-08-08T14:30:24.117Z,10
2016-08-08T14:31:24.157Z,10
2016-08-08T14:32:24.185Z,10
2016-08-08T14:33:24.213Z,10
2016-08-08T14:34:24.248Z,10
2016-08-08T14:35:25.148Z,10
2016-08-08T14:36:25.023Z,10
2016-08-08T14:37:24.364Z,10
2016-08-08T14:38:24.445Z,10
2016-08-08T14:39:25.130Z,10
2016-08-08T14:40:25.287Z,10
2016-08-08T14:41:24.486Z,10
2016-08-08T14:42:25.223Z,10
2016-08-08T14:43:24.564Z,10
2016-08-08T14:44:24.580Z,10
2016-08-08T14:45:24.613Z,10